sensor_id;sensor_type;location;lat;lon;timestamp;P1;durP1;ratioP1;P2;durP2;ratioP2
70169;SDS011;57543;45.442;9.212;2022-08-19T00:00:26;5.83;;;2.27;;
70169;SDS011;57543;45.442;9.212;2022-08-19T00:03:30;6.25;;;2.40;;
70169;SDS011;57543;45.442;9.212;2022-08-19T00:06:35;5.38;;;2.10;;
70169;SDS011;57543;45.442;9.212;2022-08-19T00:09:39;6.82;;;2.00;;
70169;SDS011;57543;45.442;9.212;2022-08-19T00:12:43;4.97;;;2.10;;
70169;SDS011;57543;45.442;9.212;2022-08-19T00:15:47;5.57;;;2.17;;
70169;SDS011;57543;45.442;9.212;2022-08-19T00:18:51;6.25;;;2.10;;
70169;SDS011;57543;45.442;9.212;2022-08-19T00:21:55;6.38;;;2.10;;
70169;SDS011;57543;45.442;9.212;2022-08-19T00:24:59;4.45;;;1.95;;
70169;SDS011;57543;45.442;9.212;2022-08-19T00:28:03;4.57;;;2.25;;
70169;SDS011;57543;45.442;9.212;2022-08-19T00:31:07;4.97;;;2.00;;
70169;SDS011;57543;45.442;9.212;2022-08-19T00:34:12;5.85;;;1.98;;
70169;SDS011;57543;45.442;9.212;2022-08-19T00:37:17;5.00;;;2.00;;
70169;SDS011;57543;45.442;9.212;2022-08-19T00:40:21;5.20;;;2.03;;
70169;SDS011;57543;45.442;9.212;2022-08-19T00:43:25;4.70;;;1.88;;
70169;SDS011;57543;45.442;9.212;2022-08-19T00:46:31;5.10;;;1.90;;
70169;SDS011;57543;45.442;9.212;2022-08-19T00:49:37;4.53;;;1.85;;
70169;SDS011;57543;45.442;9.212;2022-08-19T00:52:47;5.72;;;2.08;;
70169;SDS011;57543;45.442;9.212;2022-08-19T00:55:53;3.92;;;1.80;;
70169;SDS011;57543;45.442;9.212;2022-08-19T00:59:00;5.00;;;2.25;;
70169;SDS011;57543;45.442;9.212;2022-08-19T01:02:04;3.47;;;1.73;;
70169;SDS011;57543;45.442;9.212;2022-08-19T01:05:10;5.32;;;1.65;;
70169;SDS011;57543;45.442;9.212;2022-08-19T01:08:18;5.90;;;2.30;;
70169;SDS011;57543;45.442;9.212;2022-08-19T01:11:23;3.95;;;1.80;;
70169;SDS011;57543;45.442;9.212;2022-08-19T01:14:26;5.75;;;2.20;;
70169;SDS011;57543;45.442;9.212;2022-08-19T01:17:30;6.63;;;2.40;;
70169;SDS011;57543;45.442;9.212;2022-08-19T01:20:34;3.60;;;1.70;;
70169;SDS011;57543;45.442;9.212;2022-08-19T01:23:38;5.32;;;2.15;;
70169;SDS011;57543;45.442;9.212;2022-08-19T01:26:47;4.93;;;2.22;;
70169;SDS011;57543;45.442;9.212;2022-08-19T01:29:51;5.53;;;2.05;;
70169;SDS011;57543;45.442;9.212;2022-08-19T01:32:55;5.37;;;1.93;;
70169;SDS011;57543;45.442;9.212;2022-08-19T01:36:06;5.28;;;1.88;;
70169;SDS011;57543;45.442;9.212;2022-08-19T01:39:12;4.38;;;1.98;;
70169;SDS011;57543;45.442;9.212;2022-08-19T01:42:18;5.63;;;1.90;;
70169;SDS011;57543;45.442;9.212;2022-08-19T01:45:23;5.28;;;2.00;;
70169;SDS011;57543;45.442;9.212;2022-08-19T01:48:37;4.73;;;2.00;;
70169;SDS011;57543;45.442;9.212;2022-08-19T01:51:42;5.63;;;2.10;;
70169;SDS011;57543;45.442;9.212;2022-08-19T01:54:46;5.43;;;2.40;;
70169;SDS011;57543;45.442;9.212;2022-08-19T01:57:50;6.00;;;2.80;;
70169;SDS011;57543;45.442;9.212;2022-08-19T02:00:56;6.68;;;2.30;;
70169;SDS011;57543;45.442;9.212;2022-08-19T02:04:00;5.37;;;2.03;;
70169;SDS011;57543;45.442;9.212;2022-08-19T02:07:04;7.70;;;2.05;;
70169;SDS011;57543;45.442;9.212;2022-08-19T02:10:11;7.93;;;2.40;;
70169;SDS011;57543;45.442;9.212;2022-08-19T02:13:17;11.35;;;2.30;;
70169;SDS011;57543;45.442;9.212;2022-08-19T02:16:21;4.95;;;2.13;;
70169;SDS011;57543;45.442;9.212;2022-08-19T02:19:25;5.00;;;2.30;;
70169;SDS011;57543;45.442;9.212;2022-08-19T02:22:29;6.90;;;2.65;;
70169;SDS011;57543;45.442;9.212;2022-08-19T02:25:32;5.85;;;2.20;;
70169;SDS011;57543;45.442;9.212;2022-08-19T02:28:36;4.80;;;2.10;;
70169;SDS011;57543;45.442;9.212;2022-08-19T02:31:40;6.13;;;2.40;;
70169;SDS011;57543;45.442;9.212;2022-08-19T02:34:44;6.53;;;2.20;;
70169;SDS011;57543;45.442;9.212;2022-08-19T02:37:48;5.90;;;2.65;;
70169;SDS011;57543;45.442;9.212;2022-08-19T02:41:12;4.78;;;2.30;;
70169;SDS011;57543;45.442;9.212;2022-08-19T02:44:18;5.13;;;2.42;;
70169;SDS011;57543;45.442;9.212;2022-08-19T02:47:22;5.25;;;2.20;;
70169;SDS011;57543;45.442;9.212;2022-08-19T02:50:26;4.87;;;2.20;;
70169;SDS011;57543;45.442;9.212;2022-08-19T02:53:29;4.65;;;2.17;;
70169;SDS011;57543;45.442;9.212;2022-08-19T02:56:34;4.95;;;2.10;;
70169;SDS011;57543;45.442;9.212;2022-08-19T02:59:38;6.20;;;2.10;;
70169;SDS011;57543;45.442;9.212;2022-08-19T03:02:43;4.97;;;2.00;;
70169;SDS011;57543;45.442;9.212;2022-08-19T03:05:47;6.20;;;2.40;;
70169;SDS011;57543;45.442;9.212;2022-08-19T03:08:50;5.05;;;2.13;;
70169;SDS011;57543;45.442;9.212;2022-08-19T03:11:55;5.45;;;2.00;;
70169;SDS011;57543;45.442;9.212;2022-08-19T03:14:59;5.03;;;2.15;;
70169;SDS011;57543;45.442;9.212;2022-08-19T03:18:04;5.28;;;2.25;;
70169;SDS011;57543;45.442;9.212;2022-08-19T03:21:08;4.63;;;2.10;;
70169;SDS011;57543;45.442;9.212;2022-08-19T03:24:12;4.07;;;1.75;;
70169;SDS011;57543;45.442;9.212;2022-08-19T03:27:17;5.15;;;1.95;;
70169;SDS011;57543;45.442;9.212;2022-08-19T03:30:20;5.95;;;1.98;;
70169;SDS011;57543;45.442;9.212;2022-08-19T03:33:24;5.00;;;1.95;;
70169;SDS011;57543;45.442;9.212;2022-08-19T03:36:29;4.07;;;2.03;;
70169;SDS011;57543;45.442;9.212;2022-08-19T03:39:33;4.20;;;1.98;;
70169;SDS011;57543;45.442;9.212;2022-08-19T03:42:38;3.92;;;1.83;;
70169;SDS011;57543;45.442;9.212;2022-08-19T03:45:45;5.32;;;1.88;;
70169;SDS011;57543;45.442;9.212;2022-08-19T03:48:50;4.53;;;1.73;;
70169;SDS011;57543;45.442;9.212;2022-08-19T03:51:57;4.83;;;1.70;;
70169;SDS011;57543;45.442;9.212;2022-08-19T03:55:03;5.82;;;1.58;;
70169;SDS011;57543;45.442;9.212;2022-08-19T03:58:07;3.72;;;1.60;;
70169;SDS011;57543;45.442;9.212;2022-08-19T04:01:12;4.57;;;2.28;;
70169;SDS011;57543;45.442;9.212;2022-08-19T04:04:19;4.30;;;1.98;;
70169;SDS011;57543;45.442;9.212;2022-08-19T04:07:23;4.40;;;2.10;;
70169;SDS011;57543;45.442;9.212;2022-08-19T04:10:27;5.43;;;1.80;;
70169;SDS011;57543;45.442;9.212;2022-08-19T04:13:31;6.22;;;1.77;;
70169;SDS011;57543;45.442;9.212;2022-08-19T04:16:35;6.35;;;2.00;;
70169;SDS011;57543;45.442;9.212;2022-08-19T04:19:38;4.47;;;1.98;;
70169;SDS011;57543;45.442;9.212;2022-08-19T04:22:42;5.93;;;1.90;;
70169;SDS011;57543;45.442;9.212;2022-08-19T04:25:46;3.88;;;1.80;;
70169;SDS011;57543;45.442;9.212;2022-08-19T04:28:50;6.03;;;2.40;;
70169;SDS011;57543;45.442;9.212;2022-08-19T04:31:55;8.75;;;2.30;;
70169;SDS011;57543;45.442;9.212;2022-08-19T04:34:59;13.73;;;2.55;;
70169;SDS011;57543;45.442;9.212;2022-08-19T04:38:03;6.00;;;2.30;;
70169;SDS011;57543;45.442;9.212;2022-08-19T04:41:07;5.65;;;2.20;;
70169;SDS011;57543;45.442;9.212;2022-08-19T04:44:43;5.28;;;1.92;;
70169;SDS011;57543;45.442;9.212;2022-08-19T04:47:46;4.35;;;2.45;;
70169;SDS011;57543;45.442;9.212;2022-08-19T04:50:51;5.53;;;2.20;;
70169;SDS011;57543;45.442;9.212;2022-08-19T04:54:01;6.83;;;2.30;;
70169;SDS011;57543;45.442;9.212;2022-08-19T04:57:06;5.30;;;2.45;;
70169;SDS011;57543;45.442;9.212;2022-08-19T05:00:13;7.18;;;2.58;;
70169;SDS011;57543;45.442;9.212;2022-08-19T05:03:17;6.75;;;2.83;;
70169;SDS011;57543;45.442;9.212;2022-08-19T05:06:21;7.55;;;2.97;;
70169;SDS011;57543;45.442;9.212;2022-08-19T05:09:25;7.63;;;2.87;;
70169;SDS011;57543;45.442;9.212;2022-08-19T05:12:28;6.95;;;3.10;;
70169;SDS011;57543;45.442;9.212;2022-08-19T05:15:32;6.22;;;2.72;;
70169;SDS011;57543;45.442;9.212;2022-08-19T05:18:36;6.30;;;2.88;;
70169;SDS011;57543;45.442;9.212;2022-08-19T05:21:59;7.25;;;3.20;;
70169;SDS011;57543;45.442;9.212;2022-08-19T05:25:22;8.17;;;3.70;;
70169;SDS011;57543;45.442;9.212;2022-08-19T05:28:28;7.47;;;3.42;;
70169;SDS011;57543;45.442;9.212;2022-08-19T05:31:31;6.38;;;3.17;;
70169;SDS011;57543;45.442;9.212;2022-08-19T05:34:36;8.65;;;3.20;;
70169;SDS011;57543;45.442;9.212;2022-08-19T05:37:41;5.97;;;2.70;;
70169;SDS011;57543;45.442;9.212;2022-08-19T05:40:45;7.93;;;3.13;;
70169;SDS011;57543;45.442;9.212;2022-08-19T05:43:52;8.55;;;3.33;;
70169;SDS011;57543;45.442;9.212;2022-08-19T05:46:56;6.20;;;2.47;;
70169;SDS011;57543;45.442;9.212;2022-08-19T05:50:01;6.72;;;2.70;;
70169;SDS011;57543;45.442;9.212;2022-08-19T05:53:05;7.53;;;2.90;;
70169;SDS011;57543;45.442;9.212;2022-08-19T05:56:11;5.97;;;2.70;;
70169;SDS011;57543;45.442;9.212;2022-08-19T05:59:18;7.68;;;3.03;;
70169;SDS011;57543;45.442;9.212;2022-08-19T06:02:25;6.43;;;3.00;;
70169;SDS011;57543;45.442;9.212;2022-08-19T06:05:30;6.90;;;2.50;;
70169;SDS011;57543;45.442;9.212;2022-08-19T06:08:34;7.03;;;3.38;;
70169;SDS011;57543;45.442;9.212;2022-08-19T06:11:44;6.80;;;3.13;;
70169;SDS011;57543;45.442;9.212;2022-08-19T06:14:50;6.43;;;2.97;;
70169;SDS011;57543;45.442;9.212;2022-08-19T06:17:56;10.52;;;2.83;;
70169;SDS011;57543;45.442;9.212;2022-08-19T06:21:00;8.70;;;2.85;;
70169;SDS011;57543;45.442;9.212;2022-08-19T06:24:08;7.50;;;2.70;;
70169;SDS011;57543;45.442;9.212;2022-08-19T06:27:13;5.67;;;2.47;;
70169;SDS011;57543;45.442;9.212;2022-08-19T06:30:17;5.57;;;2.25;;
70169;SDS011;57543;45.442;9.212;2022-08-19T06:33:21;5.38;;;2.17;;
70169;SDS011;57543;45.442;9.212;2022-08-19T06:36:26;5.40;;;2.40;;
70169;SDS011;57543;45.442;9.212;2022-08-19T06:39:34;6.72;;;3.20;;
70169;SDS011;57543;45.442;9.212;2022-08-19T06:42:41;7.30;;;2.80;;
70169;SDS011;57543;45.442;9.212;2022-08-19T06:45:45;6.30;;;2.70;;
70169;SDS011;57543;45.442;9.212;2022-08-19T06:48:49;6.45;;;2.97;;
70169;SDS011;57543;45.442;9.212;2022-08-19T06:51:53;7.22;;;3.22;;
70169;SDS011;57543;45.442;9.212;2022-08-19T06:55:00;8.32;;;3.55;;
70169;SDS011;57543;45.442;9.212;2022-08-19T06:58:05;6.60;;;2.70;;
70169;SDS011;57543;45.442;9.212;2022-08-19T07:01:09;5.57;;;2.60;;
70169;SDS011;57543;45.442;9.212;2022-08-19T07:04:14;11.43;;;3.78;;
70169;SDS011;57543;45.442;9.212;2022-08-19T07:07:20;7.97;;;2.75;;
70169;SDS011;57543;45.442;9.212;2022-08-19T07:10:24;6.50;;;2.55;;
70169;SDS011;57543;45.442;9.212;2022-08-19T07:13:28;7.73;;;2.70;;
70169;SDS011;57543;45.442;9.212;2022-08-19T07:16:31;6.57;;;2.20;;
70169;SDS011;57543;45.442;9.212;2022-08-19T07:19:35;6.05;;;2.53;;
70169;SDS011;57543;45.442;9.212;2022-08-19T07:22:40;5.82;;;2.28;;
70169;SDS011;57543;45.442;9.212;2022-08-19T07:25:44;4.57;;;1.67;;
70169;SDS011;57543;45.442;9.212;2022-08-19T07:28:48;4.80;;;1.60;;
70169;SDS011;57543;45.442;9.212;2022-08-19T07:31:52;6.13;;;2.10;;
70169;SDS011;57543;45.442;9.212;2022-08-19T07:34:59;7.05;;;2.05;;
70169;SDS011;57543;45.442;9.212;2022-08-19T07:38:03;4.80;;;2.17;;
70169;SDS011;57543;45.442;9.212;2022-08-19T07:41:09;5.90;;;2.40;;
70169;SDS011;57543;45.442;9.212;2022-08-19T07:44:18;4.27;;;1.90;;
70169;SDS011;57543;45.442;9.212;2022-08-19T07:47:23;4.75;;;2.10;;
70169;SDS011;57543;45.442;9.212;2022-08-19T07:50:27;6.22;;;2.70;;
70169;SDS011;57543;45.442;9.212;2022-08-19T07:53:31;5.30;;;2.13;;
70169;SDS011;57543;45.442;9.212;2022-08-19T07:56:35;7.07;;;2.50;;
70169;SDS011;57543;45.442;9.212;2022-08-19T07:59:39;9.33;;;2.60;;
70169;SDS011;57543;45.442;9.212;2022-08-19T08:02:43;5.35;;;2.00;;
70169;SDS011;57543;45.442;9.212;2022-08-19T08:05:47;6.65;;;2.80;;
70169;SDS011;57543;45.442;9.212;2022-08-19T08:09:10;5.57;;;2.33;;
70169;SDS011;57543;45.442;9.212;2022-08-19T08:12:16;10.15;;;3.20;;
70169;SDS011;57543;45.442;9.212;2022-08-19T08:15:23;6.83;;;3.10;;
70169;SDS011;57543;45.442;9.212;2022-08-19T08:18:26;5.85;;;2.50;;
70169;SDS011;57543;45.442;9.212;2022-08-19T08:21:30;5.78;;;2.63;;
70169;SDS011;57543;45.442;9.212;2022-08-19T08:24:33;5.93;;;2.30;;
70169;SDS011;57543;45.442;9.212;2022-08-19T08:27:39;6.35;;;2.70;;
70169;SDS011;57543;45.442;9.212;2022-08-19T08:30:46;5.70;;;2.50;;
70169;SDS011;57543;45.442;9.212;2022-08-19T08:33:51;7.45;;;2.72;;
70169;SDS011;57543;45.442;9.212;2022-08-19T08:36:55;6.32;;;2.50;;
70169;SDS011;57543;45.442;9.212;2022-08-19T08:40:01;6.95;;;2.22;;
70169;SDS011;57543;45.442;9.212;2022-08-19T08:46:49;6.27;;;2.50;;
70169;SDS011;57543;45.442;9.212;2022-08-19T08:49:59;4.35;;;2.10;;
70169;SDS011;57543;45.442;9.212;2022-08-19T08:53:19;6.15;;;2.83;;
70169;SDS011;57543;45.442;9.212;2022-08-19T08:56:23;6.47;;;2.65;;
70169;SDS011;57543;45.442;9.212;2022-08-19T08:59:30;6.00;;;2.30;;
70169;SDS011;57543;45.442;9.212;2022-08-19T09:06:05;6.38;;;2.20;;
70169;SDS011;57543;45.442;9.212;2022-08-19T09:09:34;5.15;;;2.60;;
70169;SDS011;57543;45.442;9.212;2022-08-19T09:12:47;4.28;;;2.05;;
70169;SDS011;57543;45.442;9.212;2022-08-19T09:16:16;4.90;;;2.10;;
70169;SDS011;57543;45.442;9.212;2022-08-19T09:19:24;5.33;;;2.20;;
70169;SDS011;57543;45.442;9.212;2022-08-19T09:22:27;5.05;;;2.00;;
70169;SDS011;57543;45.442;9.212;2022-08-19T09:25:31;4.85;;;2.25;;
70169;SDS011;57543;45.442;9.212;2022-08-19T09:28:37;9.63;;;2.20;;
70169;SDS011;57543;45.442;9.212;2022-08-19T09:31:41;6.95;;;2.20;;
70169;SDS011;57543;45.442;9.212;2022-08-19T09:34:45;4.33;;;2.10;;
70169;SDS011;57543;45.442;9.212;2022-08-19T09:37:49;5.40;;;2.50;;
70169;SDS011;57543;45.442;9.212;2022-08-19T09:40:52;6.20;;;2.60;;
70169;SDS011;57543;45.442;9.212;2022-08-19T09:43:56;4.22;;;1.73;;
70169;SDS011;57543;45.442;9.212;2022-08-19T09:47:01;5.38;;;2.22;;
70169;SDS011;57543;45.442;9.212;2022-08-19T09:50:05;4.63;;;1.93;;
70169;SDS011;57543;45.442;9.212;2022-08-19T09:53:10;5.10;;;1.65;;
70169;SDS011;57543;45.442;9.212;2022-08-19T09:56:14;7.80;;;2.03;;
70169;SDS011;57543;45.442;9.212;2022-08-19T09:59:17;4.80;;;1.65;;
70169;SDS011;57543;45.442;9.212;2022-08-19T10:02:21;3.83;;;1.50;;
70169;SDS011;57543;45.442;9.212;2022-08-19T10:05:24;3.57;;;1.10;;
70169;SDS011;57543;45.442;9.212;2022-08-19T10:08:46;3.67;;;1.10;;
70169;SDS011;57543;45.442;9.212;2022-08-19T10:11:51;2.78;;;1.00;;
70169;SDS011;57543;45.442;9.212;2022-08-19T10:14:54;3.33;;;1.00;;
70169;SDS011;57543;45.442;9.212;2022-08-19T10:17:59;2.65;;;1.27;;
70169;SDS011;57543;45.442;9.212;2022-08-19T10:24:11;2.65;;;1.00;;
70169;SDS011;57543;45.442;9.212;2022-08-19T10:27:15;2.92;;;1.40;;
70169;SDS011;57543;45.442;9.212;2022-08-19T10:30:19;3.80;;;1.20;;
70169;SDS011;57543;45.442;9.212;2022-08-19T10:33:23;4.95;;;1.33;;
70169;SDS011;57543;45.442;9.212;2022-08-19T10:36:32;4.13;;;1.20;;
70169;SDS011;57543;45.442;9.212;2022-08-19T10:39:38;4.22;;;1.10;;
70169;SDS011;57543;45.442;9.212;2022-08-19T10:42:41;4.07;;;1.30;;
70169;SDS011;57543;45.442;9.212;2022-08-19T10:45:51;3.72;;;1.30;;
70169;SDS011;57543;45.442;9.212;2022-08-19T10:48:55;3.55;;;1.40;;
70169;SDS011;57543;45.442;9.212;2022-08-19T10:51:59;3.33;;;1.20;;
70169;SDS011;57543;45.442;9.212;2022-08-19T10:55:22;3.63;;;1.20;;
70169;SDS011;57543;45.442;9.212;2022-08-19T10:58:45;3.28;;;1.10;;
70169;SDS011;57543;45.442;9.212;2022-08-19T11:01:50;3.22;;;1.42;;
70169;SDS011;57543;45.442;9.212;2022-08-19T11:04:54;3.42;;;1.17;;
70169;SDS011;57543;45.442;9.212;2022-08-19T11:07:58;2.40;;;1.00;;
70169;SDS011;57543;45.442;9.212;2022-08-19T11:11:01;2.70;;;1.00;;
70169;SDS011;57543;45.442;9.212;2022-08-19T11:14:10;4.85;;;1.27;;
70169;SDS011;57543;45.442;9.212;2022-08-19T11:17:16;3.10;;;1.40;;
70169;SDS011;57543;45.442;9.212;2022-08-19T11:20:20;3.60;;;1.40;;
70169;SDS011;57543;45.442;9.212;2022-08-19T11:23:24;2.73;;;1.00;;
70169;SDS011;57543;45.442;9.212;2022-08-19T11:26:28;4.10;;;1.23;;
70169;SDS011;57543;45.442;9.212;2022-08-19T11:29:34;2.92;;;1.23;;
70169;SDS011;57543;45.442;9.212;2022-08-19T11:32:40;3.67;;;1.40;;
70169;SDS011;57543;45.442;9.212;2022-08-19T11:35:44;3.40;;;1.55;;
70169;SDS011;57543;45.442;9.212;2022-08-19T11:38:48;4.27;;;1.53;;
70169;SDS011;57543;45.442;9.212;2022-08-19T11:41:53;4.47;;;1.45;;
70169;SDS011;57543;45.442;9.212;2022-08-19T11:44:56;4.85;;;1.40;;
70169;SDS011;57543;45.442;9.212;2022-08-19T11:48:00;3.53;;;1.25;;
70169;SDS011;57543;45.442;9.212;2022-08-19T11:54:46;4.30;;;1.30;;
70169;SDS011;57543;45.442;9.212;2022-08-19T11:57:50;3.72;;;1.35;;
70169;SDS011;57543;45.442;9.212;2022-08-19T12:00:53;3.50;;;1.45;;
70169;SDS011;57543;45.442;9.212;2022-08-19T12:03:57;3.92;;;1.52;;
70169;SDS011;57543;45.442;9.212;2022-08-19T12:07:01;2.95;;;1.60;;
70169;SDS011;57543;45.442;9.212;2022-08-19T12:10:07;3.87;;;1.60;;
70169;SDS011;57543;45.442;9.212;2022-08-19T12:13:11;3.55;;;1.50;;
70169;SDS011;57543;45.442;9.212;2022-08-19T12:16:22;5.43;;;1.80;;
70169;SDS011;57543;45.442;9.212;2022-08-19T12:19:29;4.93;;;1.60;;
70169;SDS011;57543;45.442;9.212;2022-08-19T12:22:33;4.18;;;1.50;;
70169;SDS011;57543;45.442;9.212;2022-08-19T12:25:42;4.20;;;1.80;;
70169;SDS011;57543;45.442;9.212;2022-08-19T12:28:53;3.13;;;1.40;;
70169;SDS011;57543;45.442;9.212;2022-08-19T12:31:57;4.38;;;1.65;;
70169;SDS011;57543;45.442;9.212;2022-08-19T12:35:05;5.90;;;1.50;;
70169;SDS011;57543;45.442;9.212;2022-08-19T12:38:10;4.28;;;1.55;;
70169;SDS011;57543;45.442;9.212;2022-08-19T12:41:15;5.10;;;1.80;;
70169;SDS011;57543;45.442;9.212;2022-08-19T12:44:21;5.93;;;1.70;;
70169;SDS011;57543;45.442;9.212;2022-08-19T12:47:25;3.00;;;1.40;;
70169;SDS011;57543;45.442;9.212;2022-08-19T12:50:30;7.18;;;1.55;;
70169;SDS011;57543;45.442;9.212;2022-08-19T12:53:34;4.45;;;1.50;;
70169;SDS011;57543;45.442;9.212;2022-08-19T12:56:37;4.03;;;1.40;;
70169;SDS011;57543;45.442;9.212;2022-08-19T12:59:41;5.38;;;1.60;;
70169;SDS011;57543;45.442;9.212;2022-08-19T13:02:45;4.55;;;1.60;;
70169;SDS011;57543;45.442;9.212;2022-08-19T13:05:53;4.97;;;1.70;;
70169;SDS011;57543;45.442;9.212;2022-08-19T13:08:56;5.32;;;1.75;;
70169;SDS011;57543;45.442;9.212;2022-08-19T13:12:01;3.20;;;1.40;;
70169;SDS011;57543;45.442;9.212;2022-08-19T13:15:06;4.25;;;1.67;;
70169;SDS011;57543;45.442;9.212;2022-08-19T13:18:11;4.20;;;1.70;;
70169;SDS011;57543;45.442;9.212;2022-08-19T13:21:15;4.60;;;1.60;;
70169;SDS011;57543;45.442;9.212;2022-08-19T13:24:19;4.22;;;1.70;;
70169;SDS011;57543;45.442;9.212;2022-08-19T13:27:23;5.33;;;1.67;;
70169;SDS011;57543;45.442;9.212;2022-08-19T13:30:27;4.22;;;1.50;;
70169;SDS011;57543;45.442;9.212;2022-08-19T13:33:49;5.18;;;2.00;;
70169;SDS011;57543;45.442;9.212;2022-08-19T13:36:52;5.68;;;1.55;;
70169;SDS011;57543;45.442;9.212;2022-08-19T13:39:56;3.08;;;1.50;;
70169;SDS011;57543;45.442;9.212;2022-08-19T13:43:01;3.90;;;1.70;;
70169;SDS011;57543;45.442;9.212;2022-08-19T13:46:09;4.68;;;1.80;;
70169;SDS011;57543;45.442;9.212;2022-08-19T13:49:17;4.20;;;2.05;;
70169;SDS011;57543;45.442;9.212;2022-08-19T13:52:21;4.25;;;1.90;;
70169;SDS011;57543;45.442;9.212;2022-08-19T13:55:25;4.07;;;1.70;;
70169;SDS011;57543;45.442;9.212;2022-08-19T13:58:29;4.60;;;1.70;;
70169;SDS011;57543;45.442;9.212;2022-08-19T14:01:34;3.80;;;2.00;;
70169;SDS011;57543;45.442;9.212;2022-08-19T14:04:38;4.60;;;1.88;;
70169;SDS011;57543;45.442;9.212;2022-08-19T14:07:42;3.85;;;1.70;;
70169;SDS011;57543;45.442;9.212;2022-08-19T14:10:46;4.82;;;1.65;;
70169;SDS011;57543;45.442;9.212;2022-08-19T14:13:50;3.97;;;1.70;;
70169;SDS011;57543;45.442;9.212;2022-08-19T14:16:53;3.63;;;1.60;;
70169;SDS011;57543;45.442;9.212;2022-08-19T14:19:58;5.10;;;1.90;;
70169;SDS011;57543;45.442;9.212;2022-08-19T14:23:08;5.78;;;2.08;;
70169;SDS011;57543;45.442;9.212;2022-08-19T14:26:13;4.60;;;1.92;;
70169;SDS011;57543;45.442;9.212;2022-08-19T14:29:18;3.50;;;1.70;;
70169;SDS011;57543;45.442;9.212;2022-08-19T14:32:21;6.03;;;1.70;;
70169;SDS011;57543;45.442;9.212;2022-08-19T14:35:26;4.53;;;1.90;;
70169;SDS011;57543;45.442;9.212;2022-08-19T14:38:32;3.10;;;1.52;;
70169;SDS011;57543;45.442;9.212;2022-08-19T14:41:36;3.33;;;1.67;;
70169;SDS011;57543;45.442;9.212;2022-08-19T14:44:40;3.60;;;1.50;;
70169;SDS011;57543;45.442;9.212;2022-08-19T14:47:44;4.95;;;1.70;;
70169;SDS011;57543;45.442;9.212;2022-08-19T14:50:47;4.18;;;2.05;;
70169;SDS011;57543;45.442;9.212;2022-08-19T14:53:53;4.47;;;1.58;;
70169;SDS011;57543;45.442;9.212;2022-08-19T14:56:57;2.80;;;1.30;;
70169;SDS011;57543;45.442;9.212;2022-08-19T15:00:01;4.70;;;0.87;;
70169;SDS011;57543;45.442;9.212;2022-08-19T15:03:06;2.90;;;0.70;;
70169;SDS011;57543;45.442;9.212;2022-08-19T15:06:09;3.28;;;1.00;;
70169;SDS011;57543;45.442;9.212;2022-08-19T15:09:13;2.30;;;0.70;;
70169;SDS011;57543;45.442;9.212;2022-08-19T15:12:17;3.13;;;0.70;;
70169;SDS011;57543;45.442;9.212;2022-08-19T15:15:20;1.90;;;0.70;;
70169;SDS011;57543;45.442;9.212;2022-08-19T15:18:25;2.45;;;0.85;;
70169;SDS011;57543;45.442;9.212;2022-08-19T15:21:29;1.73;;;0.70;;
70169;SDS011;57543;45.442;9.212;2022-08-19T15:24:33;2.67;;;0.70;;
70169;SDS011;57543;45.442;9.212;2022-08-19T15:27:38;3.83;;;1.00;;
70169;SDS011;57543;45.442;9.212;2022-08-19T15:30:42;3.50;;;0.67;;
70169;SDS011;57543;45.442;9.212;2022-08-19T15:33:46;1.75;;;0.57;;
70169;SDS011;57543;45.442;9.212;2022-08-19T15:36:51;2.65;;;0.70;;
70169;SDS011;57543;45.442;9.212;2022-08-19T15:39:55;1.98;;;0.63;;
70169;SDS011;57543;45.442;9.212;2022-08-19T15:42:59;2.03;;;0.68;;
70169;SDS011;57543;45.442;9.212;2022-08-19T15:46:03;2.63;;;0.70;;
70169;SDS011;57543;45.442;9.212;2022-08-19T15:49:07;1.88;;;0.52;;
70169;SDS011;57543;45.442;9.212;2022-08-19T15:52:13;2.60;;;0.60;;
70169;SDS011;57543;45.442;9.212;2022-08-19T15:55:18;1.73;;;0.60;;
70169;SDS011;57543;45.442;9.212;2022-08-19T15:58:26;2.30;;;0.70;;
70169;SDS011;57543;45.442;9.212;2022-08-19T16:02:02;1.87;;;0.80;;
70169;SDS011;57543;45.442;9.212;2022-08-19T16:05:35;2.03;;;0.68;;
70169;SDS011;57543;45.442;9.212;2022-08-19T16:09:00;1.63;;;0.70;;
70169;SDS011;57543;45.442;9.212;2022-08-19T16:12:06;1.95;;;0.60;;
70169;SDS011;57543;45.442;9.212;2022-08-19T16:15:11;1.95;;;0.65;;
70169;SDS011;57543;45.442;9.212;2022-08-19T16:18:17;1.77;;;0.60;;
70169;SDS011;57543;45.442;9.212;2022-08-19T16:21:21;2.00;;;0.60;;
70169;SDS011;57543;45.442;9.212;2022-08-19T16:24:26;3.03;;;0.70;;
70169;SDS011;57543;45.442;9.212;2022-08-19T16:27:30;2.85;;;0.70;;
70169;SDS011;57543;45.442;9.212;2022-08-19T16:30:35;2.53;;;0.70;;
70169;SDS011;57543;45.442;9.212;2022-08-19T16:33:39;3.13;;;1.00;;
70169;SDS011;57543;45.442;9.212;2022-08-19T16:36:43;4.47;;;0.93;;
70169;SDS011;57543;45.442;9.212;2022-08-19T16:39:47;2.20;;;0.90;;
70169;SDS011;57543;45.442;9.212;2022-08-19T16:42:50;5.55;;;1.20;;
70169;SDS011;57543;45.442;9.212;2022-08-19T16:45:55;2.70;;;1.20;;
70169;SDS011;57543;45.442;9.212;2022-08-19T16:49:00;2.70;;;1.10;;
70169;SDS011;57543;45.442;9.212;2022-08-19T16:52:04;2.50;;;1.10;;
70169;SDS011;57543;45.442;9.212;2022-08-19T16:55:07;2.70;;;1.13;;
70169;SDS011;57543;45.442;9.212;2022-08-19T16:58:11;2.63;;;1.00;;
70169;SDS011;57543;45.442;9.212;2022-08-19T17:01:15;2.80;;;1.10;;
70169;SDS011;57543;45.442;9.212;2022-08-19T17:04:19;3.77;;;1.20;;
70169;SDS011;57543;45.442;9.212;2022-08-19T17:07:24;4.80;;;1.00;;
70169;SDS011;57543;45.442;9.212;2022-08-19T17:10:32;2.85;;;1.10;;
70169;SDS011;57543;45.442;9.212;2022-08-19T17:13:37;2.60;;;0.95;;
70169;SDS011;57543;45.442;9.212;2022-08-19T17:16:40;2.70;;;0.95;;
70169;SDS011;57543;45.442;9.212;2022-08-19T17:19:44;3.10;;;1.20;;
70169;SDS011;57543;45.442;9.212;2022-08-19T17:22:47;4.50;;;1.25;;
70169;SDS011;57543;45.442;9.212;2022-08-19T17:25:51;3.58;;;1.00;;
70169;SDS011;57543;45.442;9.212;2022-08-19T17:28:55;3.55;;;1.08;;
70169;SDS011;57543;45.442;9.212;2022-08-19T17:32:01;3.08;;;1.00;;
70169;SDS011;57543;45.442;9.212;2022-08-19T17:35:05;3.73;;;1.40;;
70169;SDS011;57543;45.442;9.212;2022-08-19T17:38:11;2.70;;;1.05;;
70169;SDS011;57543;45.442;9.212;2022-08-19T17:41:17;2.25;;;0.90;;
70169;SDS011;57543;45.442;9.212;2022-08-19T17:44:21;3.55;;;0.85;;
70169;SDS011;57543;45.442;9.212;2022-08-19T17:47:27;3.10;;;1.10;;
70169;SDS011;57543;45.442;9.212;2022-08-19T17:50:33;2.27;;;1.00;;
70169;SDS011;57543;45.442;9.212;2022-08-19T17:53:38;3.17;;;0.98;;
70169;SDS011;57543;45.442;9.212;2022-08-19T17:56:42;2.53;;;1.00;;
70169;SDS011;57543;45.442;9.212;2022-08-19T17:59:47;2.83;;;1.00;;
70169;SDS011;57543;45.442;9.212;2022-08-19T18:02:54;2.95;;;0.90;;
70169;SDS011;57543;45.442;9.212;2022-08-19T18:06:00;2.43;;;0.83;;
70169;SDS011;57543;45.442;9.212;2022-08-19T18:09:04;3.13;;;1.02;;
70169;SDS011;57543;45.442;9.212;2022-08-19T18:12:09;2.63;;;1.00;;
70169;SDS011;57543;45.442;9.212;2022-08-19T18:15:14;2.97;;;1.20;;
70169;SDS011;57543;45.442;9.212;2022-08-19T18:18:19;3.33;;;1.10;;
70169;SDS011;57543;45.442;9.212;2022-08-19T18:21:23;2.97;;;0.90;;
70169;SDS011;57543;45.442;9.212;2022-08-19T18:24:36;3.75;;;1.10;;
70169;SDS011;57543;45.442;9.212;2022-08-19T18:27:40;2.88;;;1.10;;
70169;SDS011;57543;45.442;9.212;2022-08-19T18:30:45;3.45;;;1.13;;
70169;SDS011;57543;45.442;9.212;2022-08-19T18:33:49;4.43;;;1.40;;
70169;SDS011;57543;45.442;9.212;2022-08-19T18:36:54;4.13;;;1.03;;
70169;SDS011;57543;45.442;9.212;2022-08-19T18:39:57;2.83;;;1.13;;
70169;SDS011;57543;45.442;9.212;2022-08-19T18:43:20;3.15;;;1.30;;
70169;SDS011;57543;45.442;9.212;2022-08-19T18:46:29;3.53;;;1.30;;
70169;SDS011;57543;45.442;9.212;2022-08-19T18:49:51;3.38;;;1.52;;
70169;SDS011;57543;45.442;9.212;2022-08-19T18:52:56;5.20;;;1.20;;